KAHN/AHN METAR and TAF weather

Enter ICAO airport designator
Station Type Date Time Source
KAHN METAR 2020/12/05 05:51 UTC NOAA

KAHN 050551Z AUTO 28006KT 10SM CLR 06/02 A3001 RMK AO2 SLP164 60000 T00610017 10122 20061 51005


Station Type Date Time Source
KAHN Decoded METAR 2020/12/05 05:51 UTC NOAA

ATHENS BEN EPPS AIRPORT, GA, United States (KAHN) 33-57N 083-20W 244M
Dec 05, 2020 - 12:51 AM EST / 2020.12.05 0551 UTC
Wind: from the W (280 degrees) at 7 MPH (6 KT):0
Visibility: 10 mile(s):0
Sky conditions: clear
Temperature: 43.0 F (6.1 C)
Dew Point: 35.1 F (1.7 C)
Relative Humidity: 73%
Pressure (altimeter): 30.01 in. Hg (1016 hPa)
Pressure tendency: 0.01 inches (0.5 hPa) higher than three hours ago
ob: KAHN 050551Z AUTO 28006KT 10SM CLR 06/02 A3001 RMK AO2 SLP164 60000 T00610017 10122 20061 51005
cycle: 6

Station Type Date Time Source
KAHN TAF 2020/12/05 06:22 UTC NOAA

TAF KAHN 050520Z 0506/0606 28011KT P6SM FEW025
FM050800 29008KT P6SM SKC
FM060000 29005KT P6SM SKC

Example: see airport list